sensor_id;sensor_type;location;lat;lon;timestamp;P1;durP1;ratioP1;P2;durP2;ratioP2
10120;SDS011;5100;45.176;5.714;2023-02-26T00:01:11;4.43;;;3.63;;
10120;SDS011;5100;45.176;5.714;2023-02-26T00:03:39;5.63;;;3.50;;
10120;SDS011;5100;45.176;5.714;2023-02-26T00:06:05;6.27;;;3.97;;
10120;SDS011;5100;45.176;5.714;2023-02-26T00:08:32;4.50;;;3.30;;
10120;SDS011;5100;45.176;5.714;2023-02-26T00:10:58;3.77;;;3.37;;
10120;SDS011;5100;45.176;5.714;2023-02-26T00:13:27;4.13;;;3.40;;
10120;SDS011;5100;45.176;5.714;2023-02-26T00:15:55;4.53;;;3.67;;
10120;SDS011;5100;45.176;5.714;2023-02-26T00:18:24;4.57;;;3.30;;
10120;SDS011;5100;45.176;5.714;2023-02-26T00:20:51;3.80;;;3.40;;
10120;SDS011;5100;45.176;5.714;2023-02-26T00:23:17;6.47;;;3.70;;
10120;SDS011;5100;45.176;5.714;2023-02-26T00:25:44;3.70;;;3.40;;
10120;SDS011;5100;45.176;5.714;2023-02-26T00:28:10;6.13;;;3.57;;
10120;SDS011;5100;45.176;5.714;2023-02-26T00:30:37;3.60;;;3.30;;
10120;SDS011;5100;45.176;5.714;2023-02-26T00:33:04;4.57;;;3.30;;
10120;SDS011;5100;45.176;5.714;2023-02-26T00:35:30;6.07;;;3.53;;
10120;SDS011;5100;45.176;5.714;2023-02-26T00:38:08;4.03;;;3.37;;
10120;SDS011;5100;45.176;5.714;2023-02-26T00:43:08;4.30;;;3.47;;
10120;SDS011;5100;45.176;5.714;2023-02-26T00:45:50;5.17;;;3.60;;
10120;SDS011;5100;45.176;5.714;2023-02-26T00:50:47;4.23;;;3.20;;
10120;SDS011;5100;45.176;5.714;2023-02-26T00:53:46;5.37;;;3.30;;
10120;SDS011;5100;45.176;5.714;2023-02-26T00:56:21;4.90;;;3.93;;
10120;SDS011;5100;45.176;5.714;2023-02-26T00:58:47;5.00;;;3.20;;
10120;SDS011;5100;45.176;5.714;2023-02-26T01:01:14;3.50;;;3.10;;
10120;SDS011;5100;45.176;5.714;2023-02-26T01:03:40;5.60;;;3.53;;
10120;SDS011;5100;45.176;5.714;2023-02-26T01:06:13;4.47;;;3.27;;
10120;SDS011;5100;45.176;5.714;2023-02-26T01:08:47;4.13;;;3.50;;
10120;SDS011;5100;45.176;5.714;2023-02-26T01:11:19;4.27;;;3.27;;
10120;SDS011;5100;45.176;5.714;2023-02-26T01:13:45;4.33;;;3.80;;
10120;SDS011;5100;45.176;5.714;2023-02-26T01:16:13;6.40;;;3.60;;
10120;SDS011;5100;45.176;5.714;2023-02-26T01:18:52;3.77;;;3.37;;
10120;SDS011;5100;45.176;5.714;2023-02-26T01:21:30;5.43;;;3.67;;
10120;SDS011;5100;45.176;5.714;2023-02-26T01:24:02;5.20;;;3.60;;
10120;SDS011;5100;45.176;5.714;2023-02-26T01:26:31;4.83;;;3.30;;
10120;SDS011;5100;45.176;5.714;2023-02-26T01:28:57;4.23;;;3.30;;
10120;SDS011;5100;45.176;5.714;2023-02-26T01:34:07;4.17;;;3.30;;
10120;SDS011;5100;45.176;5.714;2023-02-26T01:36:47;4.43;;;3.10;;
10120;SDS011;5100;45.176;5.714;2023-02-26T01:39:28;5.63;;;3.63;;
10120;SDS011;5100;45.176;5.714;2023-02-26T01:42:03;4.03;;;3.10;;
10120;SDS011;5100;45.176;5.714;2023-02-26T01:47:39;3.53;;;3.10;;
10120;SDS011;5100;45.176;5.714;2023-02-26T01:50:15;4.43;;;3.00;;
10120;SDS011;5100;45.176;5.714;2023-02-26T01:55:13;3.10;;;2.90;;
10120;SDS011;5100;45.176;5.714;2023-02-26T01:57:40;4.13;;;3.10;;
10120;SDS011;5100;45.176;5.714;2023-02-26T02:00:07;6.60;;;3.40;;
10120;SDS011;5100;45.176;5.714;2023-02-26T02:02:37;5.23;;;3.63;;
10120;SDS011;5100;45.176;5.714;2023-02-26T02:05:13;5.03;;;3.00;;
10120;SDS011;5100;45.176;5.714;2023-02-26T02:07:44;3.90;;;3.23;;
10120;SDS011;5100;45.176;5.714;2023-02-26T02:10:11;5.47;;;3.20;;
10120;SDS011;5100;45.176;5.714;2023-02-26T02:12:46;4.20;;;3.20;;
10120;SDS011;5100;45.176;5.714;2023-02-26T02:15:39;3.47;;;3.00;;
10120;SDS011;5100;45.176;5.714;2023-02-26T02:18:18;4.47;;;3.00;;
10120;SDS011;5100;45.176;5.714;2023-02-26T02:23:29;4.97;;;3.27;;
10120;SDS011;5100;45.176;5.714;2023-02-26T02:32:07;5.73;;;3.50;;
10120;SDS011;5100;45.176;5.714;2023-02-26T02:34:51;4.10;;;2.60;;
10120;SDS011;5100;45.176;5.714;2023-02-26T02:37:35;5.63;;;3.10;;
10120;SDS011;5100;45.176;5.714;2023-02-26T02:40:06;4.10;;;3.30;;
10120;SDS011;5100;45.176;5.714;2023-02-26T02:48:52;3.90;;;2.90;;
10120;SDS011;5100;45.176;5.714;2023-02-26T02:51:05;6.20;;;3.30;;
10120;SDS011;5100;45.176;5.714;2023-02-26T02:53:44;3.90;;;2.90;;
10120;SDS011;5100;45.176;5.714;2023-02-26T02:56:28;4.57;;;3.00;;
10120;SDS011;5100;45.176;5.714;2023-02-26T02:59:05;2.90;;;2.57;;
10120;SDS011;5100;45.176;5.714;2023-02-26T03:01:52;4.80;;;2.90;;
10120;SDS011;5100;45.176;5.714;2023-02-26T03:04:30;3.57;;;2.77;;
10120;SDS011;5100;45.176;5.714;2023-02-26T03:06:56;4.87;;;2.83;;
10120;SDS011;5100;45.176;5.714;2023-02-26T03:09:23;5.80;;;3.30;;
10120;SDS011;5100;45.176;5.714;2023-02-26T03:11:49;3.63;;;2.73;;
10120;SDS011;5100;45.176;5.714;2023-02-26T03:14:15;5.07;;;3.10;;
10120;SDS011;5100;45.176;5.714;2023-02-26T03:16:54;3.10;;;2.80;;
10120;SDS011;5100;45.176;5.714;2023-02-26T03:25:13;4.97;;;2.90;;
10120;SDS011;5100;45.176;5.714;2023-02-26T03:27:48;3.47;;;2.67;;
10120;SDS011;5100;45.176;5.714;2023-02-26T03:30:29;4.13;;;2.90;;
10120;SDS011;5100;45.176;5.714;2023-02-26T03:33:08;4.77;;;2.80;;
10120;SDS011;5100;45.176;5.714;2023-02-26T03:36:03;4.37;;;2.83;;
10120;SDS011;5100;45.176;5.714;2023-02-26T03:38:46;3.53;;;2.50;;
10120;SDS011;5100;45.176;5.714;2023-02-26T03:41:21;4.13;;;2.63;;
10120;SDS011;5100;45.176;5.714;2023-02-26T03:44:08;4.60;;;2.60;;
10120;SDS011;5100;45.176;5.714;2023-02-26T03:46:43;4.37;;;3.00;;
10120;SDS011;5100;45.176;5.714;2023-02-26T03:49:35;3.20;;;2.50;;
10120;SDS011;5100;45.176;5.714;2023-02-26T03:52:21;3.80;;;2.50;;
10120;SDS011;5100;45.176;5.714;2023-02-26T03:54:56;3.30;;;3.00;;
10120;SDS011;5100;45.176;5.714;2023-02-26T03:57:27;3.33;;;2.60;;
10120;SDS011;5100;45.176;5.714;2023-02-26T03:59:54;4.50;;;2.70;;
10120;SDS011;5100;45.176;5.714;2023-02-26T04:02:30;3.13;;;2.60;;
10120;SDS011;5100;45.176;5.714;2023-02-26T04:05:06;3.23;;;2.60;;
10120;SDS011;5100;45.176;5.714;2023-02-26T04:07:37;3.50;;;2.50;;
10120;SDS011;5100;45.176;5.714;2023-02-26T04:10:05;4.80;;;2.90;;
10120;SDS011;5100;45.176;5.714;2023-02-26T04:12:33;3.93;;;2.80;;
10120;SDS011;5100;45.176;5.714;2023-02-26T04:15:02;4.63;;;2.73;;
10120;SDS011;5100;45.176;5.714;2023-02-26T04:17:30;2.93;;;2.33;;
10120;SDS011;5100;45.176;5.714;2023-02-26T04:19:57;5.03;;;2.73;;
10120;SDS011;5100;45.176;5.714;2023-02-26T04:22:23;2.83;;;2.17;;
10120;SDS011;5100;45.176;5.714;2023-02-26T04:24:49;3.93;;;2.60;;
10120;SDS011;5100;45.176;5.714;2023-02-26T04:27:16;4.17;;;2.60;;
10120;SDS011;5100;45.176;5.714;2023-02-26T04:29:42;3.27;;;2.63;;
10120;SDS011;5100;45.176;5.714;2023-02-26T04:32:08;3.63;;;2.30;;
10120;SDS011;5100;45.176;5.714;2023-02-26T04:34:34;3.43;;;2.43;;
10120;SDS011;5100;45.176;5.714;2023-02-26T04:37:01;3.50;;;2.23;;
10120;SDS011;5100;45.176;5.714;2023-02-26T04:39:27;3.67;;;2.50;;
10120;SDS011;5100;45.176;5.714;2023-02-26T04:41:54;4.23;;;2.27;;
10120;SDS011;5100;45.176;5.714;2023-02-26T04:44:21;4.20;;;2.50;;
10120;SDS011;5100;45.176;5.714;2023-02-26T04:46:47;4.60;;;2.30;;
10120;SDS011;5100;45.176;5.714;2023-02-26T04:49:13;4.00;;;2.70;;
10120;SDS011;5100;45.176;5.714;2023-02-26T04:51:40;3.73;;;2.40;;
10120;SDS011;5100;45.176;5.714;2023-02-26T04:54:07;3.77;;;2.37;;
10120;SDS011;5100;45.176;5.714;2023-02-26T04:56:33;3.10;;;2.43;;
10120;SDS011;5100;45.176;5.714;2023-02-26T04:59:01;4.30;;;2.50;;
10120;SDS011;5100;45.176;5.714;2023-02-26T05:01:29;4.40;;;2.53;;
10120;SDS011;5100;45.176;5.714;2023-02-26T05:03:58;3.80;;;2.70;;
10120;SDS011;5100;45.176;5.714;2023-02-26T05:06:24;3.57;;;2.30;;
10120;SDS011;5100;45.176;5.714;2023-02-26T05:08:51;3.40;;;2.70;;
10120;SDS011;5100;45.176;5.714;2023-02-26T05:11:17;4.03;;;2.43;;
10120;SDS011;5100;45.176;5.714;2023-02-26T05:13:43;2.43;;;2.20;;
10120;SDS011;5100;45.176;5.714;2023-02-26T05:16:10;2.80;;;2.20;;
10120;SDS011;5100;45.176;5.714;2023-02-26T05:18:36;3.57;;;2.40;;
10120;SDS011;5100;45.176;5.714;2023-02-26T05:21:02;4.73;;;2.60;;
10120;SDS011;5100;45.176;5.714;2023-02-26T05:23:30;3.63;;;2.60;;
10120;SDS011;5100;45.176;5.714;2023-02-26T05:25:57;2.60;;;2.37;;
10120;SDS011;5100;45.176;5.714;2023-02-26T05:28:24;5.13;;;2.90;;
10120;SDS011;5100;45.176;5.714;2023-02-26T05:30:51;3.53;;;2.60;;
10120;SDS011;5100;45.176;5.714;2023-02-26T05:33:18;4.10;;;2.77;;
10120;SDS011;5100;45.176;5.714;2023-02-26T05:35:45;6.03;;;2.60;;
10120;SDS011;5100;45.176;5.714;2023-02-26T05:38:13;4.83;;;2.70;;
10120;SDS011;5100;45.176;5.714;2023-02-26T05:40:39;4.73;;;2.67;;
10120;SDS011;5100;45.176;5.714;2023-02-26T05:43:05;4.33;;;2.80;;
10120;SDS011;5100;45.176;5.714;2023-02-26T05:45:33;3.83;;;2.83;;
10120;SDS011;5100;45.176;5.714;2023-02-26T05:47:59;2.87;;;2.53;;
10120;SDS011;5100;45.176;5.714;2023-02-26T05:50:25;3.97;;;2.80;;
10120;SDS011;5100;45.176;5.714;2023-02-26T05:52:52;5.13;;;2.83;;
10120;SDS011;5100;45.176;5.714;2023-02-26T05:55:18;6.23;;;2.87;;
10120;SDS011;5100;45.176;5.714;2023-02-26T05:57:44;3.20;;;2.70;;
10120;SDS011;5100;45.176;5.714;2023-02-26T06:00:11;4.50;;;2.90;;
10120;SDS011;5100;45.176;5.714;2023-02-26T06:02:38;4.50;;;2.93;;
10120;SDS011;5100;45.176;5.714;2023-02-26T06:05:05;3.93;;;2.87;;
10120;SDS011;5100;45.176;5.714;2023-02-26T06:07:31;3.67;;;2.77;;
10120;SDS011;5100;45.176;5.714;2023-02-26T06:09:57;3.73;;;2.80;;
10120;SDS011;5100;45.176;5.714;2023-02-26T06:12:23;3.53;;;3.00;;
10120;SDS011;5100;45.176;5.714;2023-02-26T06:14:49;4.17;;;3.00;;
10120;SDS011;5100;45.176;5.714;2023-02-26T06:17:16;3.40;;;2.77;;
10120;SDS011;5100;45.176;5.714;2023-02-26T06:19:42;4.50;;;3.00;;
10120;SDS011;5100;45.176;5.714;2023-02-26T06:22:09;3.93;;;3.20;;
10120;SDS011;5100;45.176;5.714;2023-02-26T06:24:35;5.30;;;3.50;;
10120;SDS011;5100;45.176;5.714;2023-02-26T06:27:01;6.23;;;3.33;;
10120;SDS011;5100;45.176;5.714;2023-02-26T06:29:27;4.17;;;3.10;;
10120;SDS011;5100;45.176;5.714;2023-02-26T06:31:53;3.90;;;3.17;;
10120;SDS011;5100;45.176;5.714;2023-02-26T06:34:20;4.43;;;3.30;;
10120;SDS011;5100;45.176;5.714;2023-02-26T06:36:46;3.87;;;3.07;;
10120;SDS011;5100;45.176;5.714;2023-02-26T06:39:12;4.53;;;3.27;;
10120;SDS011;5100;45.176;5.714;2023-02-26T06:41:39;5.77;;;3.00;;
10120;SDS011;5100;45.176;5.714;2023-02-26T06:44:05;3.50;;;2.70;;
10120;SDS011;5100;45.176;5.714;2023-02-26T06:46:31;4.97;;;3.33;;
10120;SDS011;5100;45.176;5.714;2023-02-26T06:48:57;4.70;;;2.63;;
10120;SDS011;5100;45.176;5.714;2023-02-26T06:51:24;4.10;;;3.33;;
10120;SDS011;5100;45.176;5.714;2023-02-26T06:53:50;5.83;;;3.03;;
10120;SDS011;5100;45.176;5.714;2023-02-26T06:56:16;4.83;;;3.13;;
10120;SDS011;5100;45.176;5.714;2023-02-26T06:58:42;4.07;;;2.87;;
10120;SDS011;5100;45.176;5.714;2023-02-26T07:01:08;3.53;;;3.20;;
10120;SDS011;5100;45.176;5.714;2023-02-26T07:03:35;3.60;;;3.00;;
10120;SDS011;5100;45.176;5.714;2023-02-26T07:06:01;3.77;;;3.17;;
10120;SDS011;5100;45.176;5.714;2023-02-26T07:08:27;4.73;;;2.87;;
10120;SDS011;5100;45.176;5.714;2023-02-26T07:10:53;3.37;;;3.07;;
10120;SDS011;5100;45.176;5.714;2023-02-26T07:13:19;3.83;;;2.77;;
10120;SDS011;5100;45.176;5.714;2023-02-26T07:15:45;3.37;;;2.90;;
10120;SDS011;5100;45.176;5.714;2023-02-26T07:18:11;3.93;;;3.17;;
10120;SDS011;5100;45.176;5.714;2023-02-26T07:20:37;3.53;;;3.17;;
10120;SDS011;5100;45.176;5.714;2023-02-26T07:23:03;4.23;;;2.77;;
10120;SDS011;5100;45.176;5.714;2023-02-26T07:25:30;4.83;;;2.70;;
10120;SDS011;5100;45.176;5.714;2023-02-26T07:27:56;4.87;;;2.77;;
10120;SDS011;5100;45.176;5.714;2023-02-26T07:30:24;3.17;;;2.80;;
10120;SDS011;5100;45.176;5.714;2023-02-26T07:32:51;3.83;;;2.70;;
10120;SDS011;5100;45.176;5.714;2023-02-26T07:35:17;4.30;;;2.87;;
10120;SDS011;5100;45.176;5.714;2023-02-26T07:37:43;2.60;;;2.40;;
10120;SDS011;5100;45.176;5.714;2023-02-26T07:40:10;3.63;;;2.50;;
10120;SDS011;5100;45.176;5.714;2023-02-26T07:42:36;2.93;;;2.53;;
10120;SDS011;5100;45.176;5.714;2023-02-26T07:45:03;3.10;;;2.33;;
10120;SDS011;5100;45.176;5.714;2023-02-26T07:47:30;3.20;;;2.87;;
10120;SDS011;5100;45.176;5.714;2023-02-26T07:49:56;3.53;;;2.70;;
10120;SDS011;5100;45.176;5.714;2023-02-26T07:52:22;4.03;;;2.63;;
10120;SDS011;5100;45.176;5.714;2023-02-26T07:54:49;3.30;;;2.73;;
10120;SDS011;5100;45.176;5.714;2023-02-26T07:57:15;4.13;;;2.80;;
10120;SDS011;5100;45.176;5.714;2023-02-26T07:59:41;2.57;;;2.30;;
10120;SDS011;5100;45.176;5.714;2023-02-26T08:02:09;2.93;;;2.43;;
10120;SDS011;5100;45.176;5.714;2023-02-26T08:04:37;4.40;;;2.73;;
10120;SDS011;5100;45.176;5.714;2023-02-26T08:07:04;2.83;;;2.47;;
10120;SDS011;5100;45.176;5.714;2023-02-26T08:09:30;4.10;;;2.53;;
10120;SDS011;5100;45.176;5.714;2023-02-26T08:11:57;3.17;;;2.50;;
10120;SDS011;5100;45.176;5.714;2023-02-26T08:14:23;4.37;;;2.20;;
10120;SDS011;5100;45.176;5.714;2023-02-26T08:16:50;2.77;;;2.30;;
10120;SDS011;5100;45.176;5.714;2023-02-26T08:19:18;4.07;;;2.27;;
10120;SDS011;5100;45.176;5.714;2023-02-26T08:21:44;2.83;;;2.40;;
10120;SDS011;5100;45.176;5.714;2023-02-26T08:24:11;3.67;;;2.47;;
10120;SDS011;5100;45.176;5.714;2023-02-26T08:26:38;3.10;;;2.53;;
10120;SDS011;5100;45.176;5.714;2023-02-26T08:29:04;3.53;;;2.50;;
10120;SDS011;5100;45.176;5.714;2023-02-26T08:31:31;3.80;;;2.40;;
10120;SDS011;5100;45.176;5.714;2023-02-26T08:34:00;2.77;;;2.37;;
10120;SDS011;5100;45.176;5.714;2023-02-26T08:36:26;3.20;;;2.90;;
10120;SDS011;5100;45.176;5.714;2023-02-26T08:38:52;3.17;;;2.57;;
10120;SDS011;5100;45.176;5.714;2023-02-26T08:41:19;3.20;;;2.23;;
10120;SDS011;5100;45.176;5.714;2023-02-26T08:43:46;2.60;;;2.40;;
10120;SDS011;5100;45.176;5.714;2023-02-26T08:46:13;3.50;;;2.27;;
10120;SDS011;5100;45.176;5.714;2023-02-26T08:48:40;3.07;;;2.30;;
10120;SDS011;5100;45.176;5.714;2023-02-26T08:51:06;2.93;;;2.30;;
10120;SDS011;5100;45.176;5.714;2023-02-26T08:53:32;2.33;;;2.10;;
10120;SDS011;5100;45.176;5.714;2023-02-26T08:55:59;5.80;;;2.17;;
10120;SDS011;5100;45.176;5.714;2023-02-26T08:58:26;2.30;;;1.63;;
10120;SDS011;5100;45.176;5.714;2023-02-26T09:00:52;2.87;;;2.20;;
10120;SDS011;5100;45.176;5.714;2023-02-26T09:03:19;3.23;;;1.90;;
10120;SDS011;5100;45.176;5.714;2023-02-26T09:05:45;2.80;;;2.23;;
10120;SDS011;5100;45.176;5.714;2023-02-26T09:08:12;2.73;;;2.00;;
10120;SDS011;5100;45.176;5.714;2023-02-26T09:10:41;3.17;;;2.37;;
10120;SDS011;5100;45.176;5.714;2023-02-26T09:13:08;5.17;;;2.30;;
10120;SDS011;5100;45.176;5.714;2023-02-26T09:15:34;2.93;;;2.10;;
10120;SDS011;5100;45.176;5.714;2023-02-26T09:18:01;2.73;;;2.23;;
10120;SDS011;5100;45.176;5.714;2023-02-26T09:20:27;2.60;;;1.80;;
10120;SDS011;5100;45.176;5.714;2023-02-26T09:22:54;5.10;;;2.20;;
10120;SDS011;5100;45.176;5.714;2023-02-26T09:25:21;2.30;;;2.10;;
10120;SDS011;5100;45.176;5.714;2023-02-26T09:27:49;2.97;;;2.20;;
10120;SDS011;5100;45.176;5.714;2023-02-26T09:30:15;3.30;;;1.97;;
10120;SDS011;5100;45.176;5.714;2023-02-26T09:32:42;5.60;;;2.20;;
10120;SDS011;5100;45.176;5.714;2023-02-26T09:35:09;2.20;;;2.00;;
10120;SDS011;5100;45.176;5.714;2023-02-26T09:37:36;2.10;;;1.90;;
10120;SDS011;5100;45.176;5.714;2023-02-26T09:40:02;4.33;;;2.13;;
10120;SDS011;5100;45.176;5.714;2023-02-26T09:42:42;4.73;;;2.40;;
10120;SDS011;5100;45.176;5.714;2023-02-26T09:45:22;3.67;;;2.07;;
10120;SDS011;5100;45.176;5.714;2023-02-26T09:48:02;2.63;;;2.10;;
10120;SDS011;5100;45.176;5.714;2023-02-26T09:50:34;4.97;;;2.13;;
10120;SDS011;5100;45.176;5.714;2023-02-26T09:53:38;3.30;;;2.23;;
10120;SDS011;5100;45.176;5.714;2023-02-26T09:56:02;2.20;;;2.00;;
10120;SDS011;5100;45.176;5.714;2023-02-26T09:58:32;3.23;;;1.80;;
10120;SDS011;5100;45.176;5.714;2023-02-26T10:01:26;2.63;;;2.10;;
10120;SDS011;5100;45.176;5.714;2023-02-26T10:12:07;3.00;;;1.90;;
10120;SDS011;5100;45.176;5.714;2023-02-26T10:17:38;4.23;;;2.00;;
10120;SDS011;5100;45.176;5.714;2023-02-26T10:20:50;2.43;;;2.00;;
10120;SDS011;5100;45.176;5.714;2023-02-26T10:26:05;3.60;;;1.80;;
10120;SDS011;5100;45.176;5.714;2023-02-26T10:28:41;2.40;;;1.70;;
10120;SDS011;5100;45.176;5.714;2023-02-26T10:36:41;2.07;;;1.80;;
10120;SDS011;5100;45.176;5.714;2023-02-26T10:39:22;3.30;;;1.80;;
10120;SDS011;5100;45.176;5.714;2023-02-26T10:42:30;2.20;;;1.80;;
10120;SDS011;5100;45.176;5.714;2023-02-26T10:47:48;2.23;;;2.03;;
10120;SDS011;5100;45.176;5.714;2023-02-26T10:50:17;2.23;;;1.83;;
10120;SDS011;5100;45.176;5.714;2023-02-26T10:52:47;2.40;;;1.77;;
10120;SDS011;5100;45.176;5.714;2023-02-26T11:00:41;2.00;;;1.70;;
10120;SDS011;5100;45.176;5.714;2023-02-26T11:03:15;1.77;;;1.67;;
10120;SDS011;5100;45.176;5.714;2023-02-26T11:05:44;2.13;;;1.97;;
10120;SDS011;5100;45.176;5.714;2023-02-26T11:08:14;3.07;;;1.80;;
10120;SDS011;5100;45.176;5.714;2023-02-26T11:10:50;2.00;;;1.80;;
10120;SDS011;5100;45.176;5.714;2023-02-26T11:13:20;1.93;;;1.80;;
10120;SDS011;5100;45.176;5.714;2023-02-26T11:15:49;3.37;;;1.90;;
10120;SDS011;5100;45.176;5.714;2023-02-26T11:18:25;3.67;;;1.70;;
10120;SDS011;5100;45.176;5.714;2023-02-26T11:20:57;2.53;;;1.90;;
10120;SDS011;5100;45.176;5.714;2023-02-26T11:23:29;2.00;;;1.80;;
10120;SDS011;5100;45.176;5.714;2023-02-26T11:26:08;1.90;;;1.80;;
10120;SDS011;5100;45.176;5.714;2023-02-26T11:28:44;2.07;;;1.57;;
10120;SDS011;5100;45.176;5.714;2023-02-26T11:31:17;2.67;;;1.73;;
10120;SDS011;5100;45.176;5.714;2023-02-26T11:33:49;7.33;;;1.67;;
10120;SDS011;5100;45.176;5.714;2023-02-26T11:36:21;2.63;;;1.87;;
10120;SDS011;5100;45.176;5.714;2023-02-26T11:38:57;1.73;;;1.63;;
10120;SDS011;5100;45.176;5.714;2023-02-26T11:41:30;3.87;;;2.00;;
10120;SDS011;5100;45.176;5.714;2023-02-26T11:44:07;5.30;;;2.00;;
10120;SDS011;5100;45.176;5.714;2023-02-26T11:46:42;2.00;;;1.80;;
10120;SDS011;5100;45.176;5.714;2023-02-26T11:49:11;2.57;;;1.70;;
10120;SDS011;5100;45.176;5.714;2023-02-26T11:51:42;2.50;;;1.50;;
10120;SDS011;5100;45.176;5.714;2023-02-26T11:54:25;2.10;;;1.87;;
10120;SDS011;5100;45.176;5.714;2023-02-26T11:57:00;2.03;;;1.70;;
10120;SDS011;5100;45.176;5.714;2023-02-26T11:59:31;2.10;;;1.70;;
10120;SDS011;5100;45.176;5.714;2023-02-26T12:02:02;2.53;;;1.70;;
10120;SDS011;5100;45.176;5.714;2023-02-26T12:04:38;2.07;;;1.83;;
10120;SDS011;5100;45.176;5.714;2023-02-26T12:07:09;2.10;;;1.90;;
10120;SDS011;5100;45.176;5.714;2023-02-26T12:09:39;2.77;;;1.70;;
10120;SDS011;5100;45.176;5.714;2023-02-26T12:12:20;3.80;;;1.60;;
10120;SDS011;5100;45.176;5.714;2023-02-26T12:15:02;2.63;;;1.77;;
10120;SDS011;5100;45.176;5.714;2023-02-26T12:20:57;3.50;;;1.80;;
10120;SDS011;5100;45.176;5.714;2023-02-26T12:26:25;6.60;;;1.80;;
10120;SDS011;5100;45.176;5.714;2023-02-26T12:34:56;1.80;;;1.63;;
10120;SDS011;5100;45.176;5.714;2023-02-26T12:53:55;1.60;;;1.50;;
10120;SDS011;5100;45.176;5.714;2023-02-26T13:04:36;1.73;;;1.60;;
10120;SDS011;5100;45.176;5.714;2023-02-26T13:07:16;3.03;;;1.70;;
10120;SDS011;5100;45.176;5.714;2023-02-26T13:10:17;1.77;;;1.57;;
10120;SDS011;5100;45.176;5.714;2023-02-26T13:21:29;1.60;;;1.50;;
10120;SDS011;5100;45.176;5.714;2023-02-26T13:26:48;1.57;;;1.47;;
10120;SDS011;5100;45.176;5.714;2023-02-26T13:31:59;2.30;;;1.57;;
10120;SDS011;5100;45.176;5.714;2023-02-26T13:34:34;4.00;;;2.00;;
10120;SDS011;5100;45.176;5.714;2023-02-26T13:37:05;1.67;;;1.57;;
10120;SDS011;5100;45.176;5.714;2023-02-26T13:39:48;2.57;;;1.70;;
10120;SDS011;5100;45.176;5.714;2023-02-26T13:42:35;2.13;;;1.60;;
10120;SDS011;5100;45.176;5.714;2023-02-26T13:48:02;2.00;;;1.60;;
10120;SDS011;5100;45.176;5.714;2023-02-26T13:50:47;1.90;;;1.50;;
10120;SDS011;5100;45.176;5.714;2023-02-26T13:55:53;2.83;;;2.00;;
10120;SDS011;5100;45.176;5.714;2023-02-26T13:58:35;2.13;;;1.70;;
10120;SDS011;5100;45.176;5.714;2023-02-26T14:01:15;1.80;;;1.70;;
10120;SDS011;5100;45.176;5.714;2023-02-26T14:03:45;1.50;;;1.40;;
10120;SDS011;5100;45.176;5.714;2023-02-26T14:16:52;1.80;;;1.70;;
10120;SDS011;5100;45.176;5.714;2023-02-26T14:19:27;2.30;;;1.57;;
10120;SDS011;5100;45.176;5.714;2023-02-26T14:27:36;1.60;;;1.43;;
10120;SDS011;5100;45.176;5.714;2023-02-26T14:38:22;2.40;;;1.70;;
10120;SDS011;5100;45.176;5.714;2023-02-26T14:41:05;1.67;;;1.50;;
10120;SDS011;5100;45.176;5.714;2023-02-26T14:43:53;2.77;;;1.80;;
10120;SDS011;5100;45.176;5.714;2023-02-26T14:46:25;2.90;;;1.93;;
10120;SDS011;5100;45.176;5.714;2023-02-26T14:48:52;2.10;;;1.90;;
10120;SDS011;5100;45.176;5.714;2023-02-26T15:07:31;1.40;;;1.30;;
10120;SDS011;5100;45.176;5.714;2023-02-26T15:13:56;2.03;;;1.37;;
10120;SDS011;5100;45.176;5.714;2023-02-26T15:24:52;1.40;;;1.30;;
10120;SDS011;5100;45.176;5.714;2023-02-26T15:27:19;1.70;;;1.47;;
10120;SDS011;5100;45.176;5.714;2023-02-26T15:29:46;1.70;;;1.60;;
10120;SDS011;5100;45.176;5.714;2023-02-26T15:32:24;1.40;;;1.30;;
10120;SDS011;5100;45.176;5.714;2023-02-26T15:34:58;2.40;;;1.50;;
10120;SDS011;5100;45.176;5.714;2023-02-26T15:37:54;1.60;;;1.50;;
10120;SDS011;5100;45.176;5.714;2023-02-26T15:40:43;1.60;;;1.50;;
10120;SDS011;5100;45.176;5.714;2023-02-26T15:43:13;3.20;;;1.60;;
10120;SDS011;5100;45.176;5.714;2023-02-26T15:45:43;1.87;;;1.60;;
10120;SDS011;5100;45.176;5.714;2023-02-26T15:48:16;2.47;;;1.63;;
10120;SDS011;5100;45.176;5.714;2023-02-26T15:50:47;2.90;;;1.67;;
10120;SDS011;5100;45.176;5.714;2023-02-26T15:53:19;2.53;;;1.60;;
10120;SDS011;5100;45.176;5.714;2023-02-26T15:56:10;1.60;;;1.50;;
10120;SDS011;5100;45.176;5.714;2023-02-26T15:58:40;2.30;;;1.63;;
10120;SDS011;5100;45.176;5.714;2023-02-26T16:01:15;2.00;;;1.70;;
10120;SDS011;5100;45.176;5.714;2023-02-26T16:03:44;3.03;;;1.40;;
10120;SDS011;5100;45.176;5.714;2023-02-26T16:06:12;2.20;;;1.50;;
10120;SDS011;5100;45.176;5.714;2023-02-26T16:08:41;1.40;;;1.30;;
10120;SDS011;5100;45.176;5.714;2023-02-26T16:11:08;2.27;;;1.43;;
10120;SDS011;5100;45.176;5.714;2023-02-26T16:13:36;1.70;;;1.50;;
10120;SDS011;5100;45.176;5.714;2023-02-26T16:16:07;2.00;;;1.53;;
10120;SDS011;5100;45.176;5.714;2023-02-26T16:18:40;2.60;;;1.70;;
10120;SDS011;5100;45.176;5.714;2023-02-26T16:21:08;1.60;;;1.50;;
10120;SDS011;5100;45.176;5.714;2023-02-26T16:23:42;2.67;;;1.53;;
10120;SDS011;5100;45.176;5.714;2023-02-26T16:26:15;1.50;;;1.40;;
10120;SDS011;5100;45.176;5.714;2023-02-26T16:28:47;1.40;;;1.30;;
10120;SDS011;5100;45.176;5.714;2023-02-26T16:31:21;1.73;;;1.60;;
10120;SDS011;5100;45.176;5.714;2023-02-26T16:33:55;1.60;;;1.50;;
10120;SDS011;5100;45.176;5.714;2023-02-26T16:36:26;2.87;;;1.67;;
10120;SDS011;5100;45.176;5.714;2023-02-26T16:39:01;5.50;;;1.57;;
10120;SDS011;5100;45.176;5.714;2023-02-26T16:41:45;1.50;;;1.40;;
10120;SDS011;5100;45.176;5.714;2023-02-26T16:44:49;1.97;;;1.50;;
10120;SDS011;5100;45.176;5.714;2023-02-26T16:47:13;2.37;;;1.67;;
10120;SDS011;5100;45.176;5.714;2023-02-26T16:49:40;2.17;;;1.50;;
10120;SDS011;5100;45.176;5.714;2023-02-26T16:52:13;1.53;;;1.43;;
10120;SDS011;5100;45.176;5.714;2023-02-26T16:54:51;2.40;;;1.60;;
10120;SDS011;5100;45.176;5.714;2023-02-26T17:00:20;1.67;;;1.57;;
10120;SDS011;5100;45.176;5.714;2023-02-26T17:02:56;1.40;;;1.30;;
10120;SDS011;5100;45.176;5.714;2023-02-26T17:05:29;1.83;;;1.40;;
10120;SDS011;5100;45.176;5.714;2023-02-26T17:08:00;1.77;;;1.67;;
10120;SDS011;5100;45.176;5.714;2023-02-26T17:10:59;1.70;;;1.60;;
10120;SDS011;5100;45.176;5.714;2023-02-26T17:13:28;1.57;;;1.47;;
10120;SDS011;5100;45.176;5.714;2023-02-26T17:15:57;3.03;;;1.67;;
10120;SDS011;5100;45.176;5.714;2023-02-26T17:18:26;3.73;;;1.53;;
10120;SDS011;5100;45.176;5.714;2023-02-26T17:20:52;2.77;;;1.77;;
10120;SDS011;5100;45.176;5.714;2023-02-26T17:23:20;1.67;;;1.57;;
10120;SDS011;5100;45.176;5.714;2023-02-26T17:25:50;3.07;;;1.77;;
10120;SDS011;5100;45.176;5.714;2023-02-26T17:28:28;2.73;;;1.60;;
10120;SDS011;5100;45.176;5.714;2023-02-26T17:30:59;2.60;;;1.80;;
10120;SDS011;5100;45.176;5.714;2023-02-26T17:33:26;2.57;;;1.97;;
10120;SDS011;5100;45.176;5.714;2023-02-26T17:35:57;3.20;;;2.07;;
10120;SDS011;5100;45.176;5.714;2023-02-26T17:38:26;2.77;;;1.90;;
10120;SDS011;5100;45.176;5.714;2023-02-26T17:40:53;2.20;;;2.00;;
10120;SDS011;5100;45.176;5.714;2023-02-26T17:43:21;2.20;;;2.00;;
10120;SDS011;5100;45.176;5.714;2023-02-26T17:45:48;2.57;;;2.00;;
10120;SDS011;5100;45.176;5.714;2023-02-26T17:48:15;2.10;;;1.90;;
10120;SDS011;5100;45.176;5.714;2023-02-26T17:53:18;2.87;;;2.00;;
10120;SDS011;5100;45.176;5.714;2023-02-26T17:55:46;2.10;;;1.90;;
10120;SDS011;5100;45.176;5.714;2023-02-26T17:58:18;2.20;;;2.00;;
10120;SDS011;5100;45.176;5.714;2023-02-26T18:00:59;2.47;;;2.00;;
10120;SDS011;5100;45.176;5.714;2023-02-26T18:03:27;2.90;;;2.50;;
10120;SDS011;5100;45.176;5.714;2023-02-26T18:05:54;1.77;;;1.67;;
10120;SDS011;5100;45.176;5.714;2023-02-26T18:08:22;2.50;;;1.80;;
10120;SDS011;5100;45.176;5.714;2023-02-26T18:10:56;2.50;;;2.30;;
10120;SDS011;5100;45.176;5.714;2023-02-26T18:13:24;2.33;;;1.80;;
10120;SDS011;5100;45.176;5.714;2023-02-26T18:15:51;3.47;;;2.10;;
10120;SDS011;5100;45.176;5.714;2023-02-26T18:18:20;2.10;;;1.90;;
10120;SDS011;5100;45.176;5.714;2023-02-26T18:20:47;2.87;;;1.93;;